Airfield :
LOGIN :

Register | Disclaimer

   EN    FR    IT 

 










Legend :    VFR   Marginal VFR   IFR   Intensive IFR   Very Intensive IFR
Visi :
Ceiling :
>= 8 km
>= 3000ft
5 to 8 km
1000 to 3000 ft
1500m to 5 km
500 to 1000 ft
800 to 1500m
200 to 500 ft
< 800m
< 200 ft
Symbols :   Thunderstorms  Fog  Heavy snow  Heavy precipitations  Wind > 20 kt
SIGMETs :     Misc.  Thunderstorms  Icing  Turbulence  Mountain Waves  Volcanic Ashes






- Airport Elevation : 443 ft
- IATA code : SQQ


EYSA - Siauliai

CURRENT METAR :
  • 131720Z VRB02KT CAVOK 20/11 Q1017 BLU NOSIG

EXPIRED METARs :
  • 131650Z 20004KT CAVOK 21/11 Q1017 BLU NOSIG
  • 131620Z 25003KT 220V280 CAVOK 21/10 Q1017 BLU NOSIG
  • 131550Z 25004KT 170V330 CAVOK 22/11 Q1017 BLU NOSIG
  • 131520Z 25005KT 210V290 CAVOK 22/11 Q1017 BLU NOSIG
  • 131450Z VRB03KT CAVOK 22/10 Q1018 BLU NOSIG

TAF TAF EYSA
Valid from the 13 at 18:00 until the 14 at 03:00 UTC


131701Z 1318/1403 VRB04KT 9000 SCT045



MET'MAP, your aeronautical weather chart ! - Copyright ORBIFLY December 2007 - Disclaimer

ORBIFLY MET'MAP TEAM :

Programming & Development : Alexandra Zaïnal
Concept & original design : Baudouin d'Aumeries
Assistance for programming : Marc-Olivier Méhu
Technical & hardware support : Manuel Goepfert

Contact : metmap@orbifly.com




SOURCES & CREDITS :

   NOAA